createdAt,value
2023-05-10T00:04:28.532Z,101006.49
2023-05-10T00:09:31.189Z,101001.38
2023-05-10T00:14:34.543Z,101002.11
2023-05-10T00:19:37.248Z,100998.02
2023-05-10T00:24:39.926Z,100996.16
2023-05-10T00:29:42.606Z,100995.36
2023-05-10T00:34:45.372Z,100997.73
2023-05-10T00:39:48.045Z,100987.87
2023-05-10T00:44:50.746Z,100991.23
2023-05-10T00:49:53.482Z,100991.30
2023-05-10T00:54:56.649Z,100993.77
2023-05-10T01:00:00.507Z,100995.33
2023-05-10T01:05:04.786Z,100995.66
2023-05-10T01:10:09.467Z,100991.65
2023-05-10T01:15:13.225Z,100985.73
2023-05-10T01:20:16.704Z,100987.80
2023-05-10T01:25:35.025Z,100982.76
2023-05-10T01:31:16.613Z,100982.89
2023-05-10T01:36:31.902Z,100980.58
2023-05-10T01:41:42.291Z,100977.61
2023-05-10T01:46:52.972Z,100978.35
2023-05-10T01:52:01.614Z,100977.14
2023-05-10T01:57:09.796Z,100977.77
2023-05-10T02:02:14.917Z,100978.09
2023-05-10T02:07:18.947Z,100979.16
2023-05-10T02:12:24.113Z,100982.83
2023-05-10T02:17:27.680Z,100980.20
2023-05-10T02:22:30.754Z,100982.45
2023-05-10T02:27:35.874Z,100991.10
2023-05-10T02:32:39.976Z,100991.60
2023-05-10T02:37:44.532Z,100988.60
2023-05-10T02:42:50.320Z,100983.40
2023-05-10T02:47:53.560Z,100979.58
2023-05-10T02:53:02.816Z,100972.23
2023-05-10T02:58:05.557Z,100972.66
2023-05-10T03:03:08.930Z,100973.48
2023-05-10T03:08:12.289Z,100972.45
2023-05-10T03:13:29.437Z,100976.62
2023-05-10T03:18:43.068Z,100978.69
2023-05-10T03:24:03.789Z,100973.59
2023-05-10T03:29:08.637Z,100967.08
2023-05-10T03:34:11.567Z,100963.15
2023-05-10T03:39:14.256Z,100960.94
2023-05-10T03:44:17.477Z,100959.52
2023-05-10T03:49:20.159Z,100963.70
2023-05-10T03:54:22.909Z,100963.48
2023-05-10T03:59:25.610Z,100963.85
2023-05-10T04:04:28.570Z,100963.52
2023-05-10T04:09:31.248Z,100963.91
2023-05-10T04:14:34.535Z,100958.73
2023-05-10T04:19:37.237Z,100966.34
2023-05-10T04:24:39.909Z,100968.86
2023-05-10T04:29:42.673Z,100967.44
2023-05-10T04:34:45.676Z,100969.27
2023-05-10T04:39:48.368Z,100968.77
2023-05-10T04:44:51.413Z,100967.55
2023-05-10T04:49:54.127Z,100959.30
2023-05-10T04:54:56.887Z,100958.98
2023-05-10T05:00:01.108Z,100956.84
2023-05-10T05:05:03.983Z,100959.86
2023-05-10T05:10:08.612Z,100951.67
2023-05-10T05:15:11.942Z,100949.96
2023-05-10T05:20:15.273Z,100952.27
2023-05-10T05:25:18.452Z,100954.64
2023-05-10T05:30:25.260Z,100950.98
2023-05-10T05:35:28.236Z,100951.52
2023-05-10T05:40:32.558Z,100952.29
2023-05-10T05:45:39.170Z,100946.36
2023-05-10T05:50:41.904Z,100948.70
2023-05-10T05:56:02.105Z,100949.58
2023-05-10T06:01:05.654Z,100945.88
2023-05-10T06:13:08.607Z,100938.30
2023-05-10T06:18:14.474Z,100938.25
2023-05-10T06:23:32.493Z,100943.39
2023-05-10T06:28:42.770Z,100937.23
2023-05-10T06:33:47.003Z,100940.38
2023-05-10T06:38:49.886Z,100943.27
2023-05-10T06:43:52.680Z,100933.40
2023-05-10T06:48:57.910Z,100932.48
2023-05-10T06:54:01.230Z,100930.27
2023-05-10T06:59:04.077Z,100928.63
2023-05-10T07:04:09.690Z,100924.72
2023-05-10T07:09:15.822Z,100918.59
2023-05-10T07:14:18.773Z,100922.77
2023-05-10T07:19:21.597Z,100926.83
2023-05-10T07:24:24.502Z,100928.38
2023-05-10T07:29:29.694Z,100924.14
2023-05-10T07:34:35.094Z,100916.95
2023-05-10T07:39:40.742Z,100920.90
2023-05-10T07:44:48.406Z,100919.51
2023-05-10T07:49:55.227Z,100919.44
2023-05-10T07:55:05.731Z,100922.09
2023-05-10T08:05:43.771Z,100926.81
2023-05-10T08:10:47.750Z,100924.70
2023-05-10T08:15:58.545Z,100916.81
2023-05-10T08:21:09.092Z,100912.45
2023-05-10T08:26:15.011Z,100911.67
2023-05-10T08:31:20.528Z,100906.49
2023-05-10T08:36:33.946Z,100911.77
2023-05-10T08:41:40.151Z,100908.13
2023-05-10T08:46:47.763Z,100913.10
2023-05-10T08:52:16.179Z,100909.75
2023-05-10T08:57:22.508Z,100906.15
2023-05-10T09:02:31.198Z,100903.02
2023-05-10T09:07:45.870Z,100903.25
2023-05-10T09:12:53.121Z,100906.25
2023-05-10T09:18:07.529Z,100900.48
2023-05-10T09:23:33.433Z,100899.73
2023-05-10T09:28:58.788Z,100891.29
2023-05-10T09:34:01.860Z,100898.70
2023-05-10T09:44:44.726Z,100889.02
2023-05-10T09:49:52.333Z,100881.39
2023-05-10T09:55:01.311Z,100881.14
2023-05-10T10:02:19.875Z,100872.88
2023-05-10T10:06:02.344Z,100870.19
2023-05-10T10:11:12.680Z,100868.53
2023-05-10T10:16:16.974Z,100855.35
2023-05-10T10:21:21.772Z,100856.06
2023-05-10T10:26:26.114Z,100846.41
2023-05-10T10:31:47.195Z,100840.16
2023-05-10T10:36:52.981Z,100837.95
2023-05-10T10:42:04.782Z,100837.35
2023-05-10T10:47:09.727Z,100828.70
2023-05-10T10:52:37.886Z,100821.08
2023-05-10T10:57:42.587Z,100810.17
2023-05-10T11:03:20.147Z,100806.76
2023-05-10T11:08:26.338Z,100806.86
2023-05-10T11:13:29.429Z,100799.34
2023-05-10T11:18:34.752Z,100791.86
2023-05-10T11:23:40.611Z,100788.02
2023-05-10T11:28:48.448Z,100785.58
2023-05-10T11:33:53.405Z,100773.92
2023-05-10T11:38:57.819Z,100772.92
2023-05-10T11:44:00.972Z,100774.17
2023-05-10T11:49:07.238Z,100766.92
2023-05-10T11:54:14.811Z,100766.85
2023-05-10T11:59:19.136Z,100765.95
2023-05-10T12:04:22.992Z,100765.42
2023-05-10T12:09:39.743Z,100760.70
2023-05-10T12:14:51.451Z,100762.30
2023-05-10T12:19:54.170Z,100759.36
2023-05-10T12:24:56.912Z,100754.75
2023-05-10T12:30:01.091Z,100766.66
2023-05-10T12:35:05.023Z,100766.89
2023-05-10T12:40:10.506Z,100756.49
2023-05-10T12:45:16.250Z,100764.05
2023-05-10T12:50:19.622Z,100763.97
2023-05-10T12:55:22.902Z,100760.96
2023-05-10T13:00:27.145Z,100755.67
2023-05-10T13:05:30.796Z,100745.26
2023-05-10T13:10:37.063Z,100758.52
2023-05-10T13:15:40.517Z,100752.19
2023-05-10T13:20:45.276Z,100741.98
2023-05-10T13:25:48.169Z,100746.29
2023-05-10T13:30:50.914Z,100737.94
2023-05-10T13:35:55.625Z,100736.58
2023-05-10T13:40:58.452Z,100733.42
2023-05-10T13:46:03.945Z,100727.83
2023-05-10T13:51:06.708Z,100720.25
2023-05-10T13:56:09.507Z,100722.80
2023-05-10T14:01:14.800Z,100721.08
2023-05-10T14:06:17.564Z,100722.13
2023-05-10T14:11:24.401Z,100713.08
2023-05-10T14:16:28.719Z,100713.15
2023-05-10T14:21:31.783Z,100714.11
2023-05-10T14:26:35.545Z,100711.29
2023-05-10T14:31:38.237Z,100713.47
2023-05-10T14:36:41.434Z,100717.18
2023-05-10T14:41:46.920Z,100719.31
2023-05-10T14:46:50.820Z,100710.37
2023-05-10T14:51:57.131Z,100709.17
2023-05-10T14:57:01.375Z,100710.52
2023-05-10T15:02:05.691Z,100709.64
2023-05-10T15:07:09.125Z,100707.09
2023-05-10T15:12:12.231Z,100701.73
2023-05-10T15:17:14.967Z,100699.86
2023-05-10T15:22:17.705Z,100696.87
2023-05-10T15:27:23.250Z,100703.41
2023-05-10T15:32:26.252Z,100701.38
2023-05-10T15:37:29.192Z,100696.96
2023-05-10T15:42:34.427Z,100700.13
2023-05-10T15:47:37.523Z,100696.27
2023-05-10T15:52:40.271Z,100690.73
2023-05-10T15:57:44.754Z,100690.34
2023-05-10T16:02:47.586Z,100686.59
2023-05-10T16:07:50.689Z,100694.45
2023-05-10T16:12:55.640Z,100692.27
2023-05-10T16:17:58.580Z,100691.58
2023-05-10T16:23:07.010Z,100694.46
2023-05-10T16:28:09.777Z,100690.68
2023-05-10T16:33:12.499Z,100689.20
2023-05-10T16:38:15.193Z,100693.17
2023-05-10T16:43:18.282Z,100700.17
2023-05-10T16:48:21.077Z,100705.73
2023-05-10T16:53:23.849Z,100706.52
2023-05-10T16:58:26.995Z,100703.26
2023-05-10T17:03:29.802Z,100709.46
2023-05-10T17:08:33.875Z,100710.52
2023-05-10T17:13:37.090Z,100716.14
2023-05-10T17:18:43.027Z,100719.63
2023-05-10T17:23:46.484Z,100728.58
2023-05-10T17:28:55.102Z,100732.27
2023-05-10T17:33:59.696Z,100740.02
2023-05-10T17:39:02.701Z,100740.82
2023-05-10T17:44:05.566Z,100748.33
2023-05-10T17:49:11.518Z,100750.88
2023-05-10T17:54:14.985Z,100751.41
2023-05-10T17:59:18.735Z,100759.54
2023-05-10T18:04:26.160Z,100764.14
2023-05-10T18:09:29.771Z,100770.77
2023-05-10T18:14:40.744Z,100773.77
2023-05-10T18:19:44.517Z,100773.47
2023-05-10T18:24:47.740Z,100778.80
2023-05-10T18:29:51.959Z,100781.02
2023-05-10T18:34:57.163Z,100789.59
2023-05-10T18:39:59.907Z,100794.70
2023-05-10T18:45:03.600Z,100800.23
2023-05-10T18:50:07.719Z,100813.08
2023-05-10T18:55:10.578Z,100811.10
2023-05-10T19:00:13.604Z,100812.30
2023-05-10T19:05:17.129Z,100819.45
2023-05-10T19:10:20.360Z,100816.31
2023-05-10T19:15:23.199Z,100819.76
2023-05-10T19:20:29.160Z,100822.25
2023-05-10T19:25:34.785Z,100824.93
2023-05-10T19:30:40.795Z,100820.09
2023-05-10T19:35:43.648Z,100826.05
2023-05-10T19:40:46.533Z,100824.77
2023-05-10T19:45:50.203Z,100834.34
2023-05-10T19:51:09.911Z,100839.73
2023-05-10T19:56:14.685Z,100841.33
2023-05-10T20:01:17.747Z,100851.00
2023-05-10T20:06:20.535Z,100858.38
2023-05-10T20:11:23.534Z,100859.58
2023-05-10T20:16:27.166Z,100860.64
2023-05-10T20:21:30.251Z,100858.38
2023-05-10T20:26:34.076Z,100863.11
2023-05-10T20:31:36.815Z,100862.64
2023-05-10T20:36:39.606Z,100864.10
2023-05-10T20:41:42.819Z,100870.19
2023-05-10T20:46:45.654Z,100868.42
2023-05-10T20:51:48.434Z,100870.37
2023-05-10T20:56:51.934Z,100872.30
2023-05-10T21:01:54.788Z,100873.42
2023-05-10T21:06:57.518Z,100879.46
2023-05-10T21:12:01.706Z,100882.65
2023-05-10T21:17:04.709Z,100884.88
2023-05-10T21:22:08.321Z,100880.83
2023-05-10T21:27:11.138Z,100885.40
2023-05-10T21:32:15.029Z,100888.79
2023-05-10T21:37:17.810Z,100888.25
2023-05-10T21:42:20.481Z,100888.48
2023-05-10T21:47:23.242Z,100890.26
2023-05-10T21:52:25.933Z,100891.86
2023-05-10T21:57:28.653Z,100891.58
2023-05-10T22:02:31.541Z,100891.96
2023-05-10T22:07:34.543Z,100895.11
2023-05-10T22:12:37.278Z,100904.59
2023-05-10T22:17:40.760Z,100906.48
2023-05-10T22:22:44.406Z,100907.95
2023-05-10T22:27:47.169Z,100909.71
2023-05-10T22:32:50.041Z,100912.45
2023-05-10T22:37:52.744Z,100912.57
2023-05-10T22:42:55.473Z,100918.27
2023-05-10T22:48:04.645Z,100921.08
2023-05-10T22:53:07.375Z,100923.89
2023-05-10T22:58:10.182Z,100923.80
2023-05-10T23:03:12.884Z,100924.27
2023-05-10T23:08:15.522Z,100920.45
2023-05-10T23:13:20.788Z,100925.73
2023-05-10T23:18:23.473Z,100924.16
2023-05-10T23:23:26.274Z,100927.14
2023-05-10T23:28:29.042Z,100924.27
2023-05-10T23:33:31.745Z,100923.88
2023-05-10T23:38:34.457Z,100924.52
2023-05-10T23:43:37.260Z,100932.25
2023-05-10T23:48:39.984Z,100940.48
2023-05-10T23:53:42.683Z,100938.27
2023-05-10T23:58:46.463Z,100943.12
